sensor_id;sensor_type;location;lat;lon;timestamp;P1;durP1;ratioP1;P2;durP2;ratioP2
60016;SDS011;45869;52.698;6.210;2023-03-29T00:02:15;5.47;;;2.33;;
60016;SDS011;45869;52.698;6.210;2023-03-29T00:04:41;5.65;;;2.45;;
60016;SDS011;45869;52.698;6.210;2023-03-29T00:07:10;3.85;;;1.95;;
60016;SDS011;45869;52.698;6.210;2023-03-29T00:09:38;4.82;;;2.30;;
60016;SDS011;45869;52.698;6.210;2023-03-29T00:12:04;4.65;;;1.95;;
60016;SDS011;45869;52.698;6.210;2023-03-29T00:14:30;4.78;;;1.92;;
60016;SDS011;45869;52.698;6.210;2023-03-29T00:16:59;5.60;;;2.10;;
60016;SDS011;45869;52.698;6.210;2023-03-29T00:19:25;5.65;;;2.15;;
60016;SDS011;45869;52.698;6.210;2023-03-29T00:21:52;3.55;;;2.20;;
60016;SDS011;45869;52.698;6.210;2023-03-29T00:24:18;5.68;;;2.17;;
60016;SDS011;45869;52.698;6.210;2023-03-29T00:26:45;3.90;;;2.08;;
60016;SDS011;45869;52.698;6.210;2023-03-29T00:29:11;5.53;;;2.20;;
60016;SDS011;45869;52.698;6.210;2023-03-29T00:31:37;4.13;;;2.05;;
60016;SDS011;45869;52.698;6.210;2023-03-29T00:34:03;5.10;;;2.40;;
60016;SDS011;45869;52.698;6.210;2023-03-29T00:36:29;5.15;;;2.20;;
60016;SDS011;45869;52.698;6.210;2023-03-29T00:38:55;5.72;;;2.80;;
60016;SDS011;45869;52.698;6.210;2023-03-29T00:41:21;4.72;;;2.17;;
60016;SDS011;45869;52.698;6.210;2023-03-29T00:43:54;4.63;;;2.53;;
60016;SDS011;45869;52.698;6.210;2023-03-29T00:46:21;5.18;;;2.30;;
60016;SDS011;45869;52.698;6.210;2023-03-29T00:48:48;6.15;;;2.45;;
60016;SDS011;45869;52.698;6.210;2023-03-29T00:51:15;4.43;;;2.50;;
60016;SDS011;45869;52.698;6.210;2023-03-29T00:53:44;6.32;;;2.85;;
60016;SDS011;45869;52.698;6.210;2023-03-29T00:56:28;4.18;;;2.60;;
60016;SDS011;45869;52.698;6.210;2023-03-29T00:59:00;6.15;;;3.33;;
60016;SDS011;45869;52.698;6.210;2023-03-29T01:01:32;7.95;;;3.30;;
60016;SDS011;45869;52.698;6.210;2023-03-29T01:04:03;4.82;;;2.95;;
60016;SDS011;45869;52.698;6.210;2023-03-29T01:06:32;5.07;;;2.95;;
60016;SDS011;45869;52.698;6.210;2023-03-29T01:09:00;6.22;;;3.00;;
60016;SDS011;45869;52.698;6.210;2023-03-29T01:11:28;8.27;;;3.80;;
60016;SDS011;45869;52.698;6.210;2023-03-29T01:13:57;8.38;;;3.83;;
60016;SDS011;45869;52.698;6.210;2023-03-29T01:16:27;5.97;;;3.13;;
60016;SDS011;45869;52.698;6.210;2023-03-29T01:18:57;4.80;;;3.40;;
60016;SDS011;45869;52.698;6.210;2023-03-29T01:21:29;6.85;;;3.30;;
60016;SDS011;45869;52.698;6.210;2023-03-29T01:29:20;5.80;;;3.45;;
60016;SDS011;45869;52.698;6.210;2023-03-29T01:31:49;9.90;;;3.75;;
60016;SDS011;45869;52.698;6.210;2023-03-29T01:34:29;7.78;;;3.72;;
60016;SDS011;45869;52.698;6.210;2023-03-29T01:36:59;5.68;;;3.22;;
60016;SDS011;45869;52.698;6.210;2023-03-29T01:39:25;6.60;;;3.55;;
60016;SDS011;45869;52.698;6.210;2023-03-29T01:42:00;7.15;;;3.30;;
60016;SDS011;45869;52.698;6.210;2023-03-29T01:47:05;5.05;;;3.25;;
60016;SDS011;45869;52.698;6.210;2023-03-29T01:49:40;8.25;;;4.03;;
60016;SDS011;45869;52.698;6.210;2023-03-29T01:52:18;6.90;;;3.60;;
60016;SDS011;45869;52.698;6.210;2023-03-29T01:54:54;4.93;;;3.28;;
60016;SDS011;45869;52.698;6.210;2023-03-29T01:57:22;7.35;;;3.45;;
60016;SDS011;45869;52.698;6.210;2023-03-29T01:59:49;6.55;;;3.42;;
60016;SDS011;45869;52.698;6.210;2023-03-29T02:02:16;5.45;;;3.40;;
60016;SDS011;45869;52.698;6.210;2023-03-29T02:04:45;7.57;;;3.90;;
60016;SDS011;45869;52.698;6.210;2023-03-29T02:07:12;5.30;;;3.38;;
60016;SDS011;45869;52.698;6.210;2023-03-29T02:09:40;7.40;;;4.00;;
60016;SDS011;45869;52.698;6.210;2023-03-29T02:12:07;6.75;;;3.65;;
60016;SDS011;45869;52.698;6.210;2023-03-29T02:14:34;7.05;;;3.92;;
60016;SDS011;45869;52.698;6.210;2023-03-29T02:19:48;9.32;;;3.95;;
60016;SDS011;45869;52.698;6.210;2023-03-29T02:22:26;5.53;;;3.30;;
60016;SDS011;45869;52.698;6.210;2023-03-29T02:24:53;6.00;;;3.55;;
60016;SDS011;45869;52.698;6.210;2023-03-29T02:27:23;5.82;;;3.30;;
60016;SDS011;45869;52.698;6.210;2023-03-29T02:29:50;6.50;;;3.47;;
60016;SDS011;45869;52.698;6.210;2023-03-29T02:32:19;7.90;;;3.22;;
60016;SDS011;45869;52.698;6.210;2023-03-29T02:34:51;6.75;;;3.42;;
60016;SDS011;45869;52.698;6.210;2023-03-29T02:37:20;6.57;;;3.80;;
60016;SDS011;45869;52.698;6.210;2023-03-29T02:39:48;7.18;;;3.85;;
60016;SDS011;45869;52.698;6.210;2023-03-29T02:42:18;5.72;;;3.47;;
60016;SDS011;45869;52.698;6.210;2023-03-29T02:44:45;5.88;;;3.50;;
60016;SDS011;45869;52.698;6.210;2023-03-29T02:47:29;7.95;;;3.85;;
60016;SDS011;45869;52.698;6.210;2023-03-29T02:49:56;6.85;;;3.85;;
60016;SDS011;45869;52.698;6.210;2023-03-29T02:52:23;6.85;;;3.78;;
60016;SDS011;45869;52.698;6.210;2023-03-29T02:54:53;7.22;;;3.42;;
60016;SDS011;45869;52.698;6.210;2023-03-29T02:57:20;5.68;;;3.80;;
60016;SDS011;45869;52.698;6.210;2023-03-29T02:59:51;5.40;;;3.35;;
60016;SDS011;45869;52.698;6.210;2023-03-29T03:02:17;5.38;;;3.47;;
60016;SDS011;45869;52.698;6.210;2023-03-29T03:04:43;5.68;;;3.38;;
60016;SDS011;45869;52.698;6.210;2023-03-29T03:07:12;7.05;;;3.72;;
60016;SDS011;45869;52.698;6.210;2023-03-29T03:09:41;5.97;;;3.85;;
60016;SDS011;45869;52.698;6.210;2023-03-29T03:12:07;7.68;;;4.22;;
60016;SDS011;45869;52.698;6.210;2023-03-29T03:14:33;6.28;;;3.60;;
60016;SDS011;45869;52.698;6.210;2023-03-29T03:16:59;7.47;;;3.88;;
60016;SDS011;45869;52.698;6.210;2023-03-29T03:19:25;5.57;;;3.60;;
60016;SDS011;45869;52.698;6.210;2023-03-29T03:21:54;5.20;;;3.50;;
60016;SDS011;45869;52.698;6.210;2023-03-29T03:24:20;5.47;;;3.50;;
60016;SDS011;45869;52.698;6.210;2023-03-29T03:26:55;7.13;;;3.97;;
60016;SDS011;45869;52.698;6.210;2023-03-29T03:29:26;5.35;;;3.83;;
60016;SDS011;45869;52.698;6.210;2023-03-29T03:31:52;8.15;;;4.00;;
60016;SDS011;45869;52.698;6.210;2023-03-29T03:34:18;6.85;;;3.83;;
60016;SDS011;45869;52.698;6.210;2023-03-29T03:36:45;6.57;;;3.50;;
60016;SDS011;45869;52.698;6.210;2023-03-29T03:39:11;6.22;;;3.90;;
60016;SDS011;45869;52.698;6.210;2023-03-29T03:41:38;6.97;;;4.13;;
60016;SDS011;45869;52.698;6.210;2023-03-29T03:44:04;4.78;;;3.25;;
60016;SDS011;45869;52.698;6.210;2023-03-29T03:46:30;6.05;;;4.03;;
60016;SDS011;45869;52.698;6.210;2023-03-29T03:48:56;7.50;;;3.65;;
60016;SDS011;45869;52.698;6.210;2023-03-29T03:51:25;7.20;;;4.00;;
60016;SDS011;45869;52.698;6.210;2023-03-29T03:53:51;8.30;;;4.00;;
60016;SDS011;45869;52.698;6.210;2023-03-29T03:56:17;6.07;;;3.40;;
60016;SDS011;45869;52.698;6.210;2023-03-29T03:58:44;6.63;;;3.92;;
60016;SDS011;45869;52.698;6.210;2023-03-29T04:01:11;7.90;;;3.65;;
60016;SDS011;45869;52.698;6.210;2023-03-29T04:03:37;6.95;;;3.75;;
60016;SDS011;45869;52.698;6.210;2023-03-29T04:06:03;9.98;;;4.05;;
60016;SDS011;45869;52.698;6.210;2023-03-29T04:08:29;6.03;;;3.78;;
60016;SDS011;45869;52.698;6.210;2023-03-29T04:10:57;6.28;;;3.80;;
60016;SDS011;45869;52.698;6.210;2023-03-29T04:13:23;5.95;;;3.60;;
60016;SDS011;45869;52.698;6.210;2023-03-29T04:15:50;6.60;;;3.75;;
60016;SDS011;45869;52.698;6.210;2023-03-29T04:18:18;7.70;;;4.22;;
60016;SDS011;45869;52.698;6.210;2023-03-29T04:20:45;8.88;;;4.15;;
60016;SDS011;45869;52.698;6.210;2023-03-29T04:23:12;7.65;;;4.03;;
60016;SDS011;45869;52.698;6.210;2023-03-29T04:25:38;7.20;;;4.10;;
60016;SDS011;45869;52.698;6.210;2023-03-29T04:28:08;7.00;;;3.95;;
60016;SDS011;45869;52.698;6.210;2023-03-29T04:30:34;6.75;;;3.85;;
60016;SDS011;45869;52.698;6.210;2023-03-29T04:33:00;8.88;;;4.90;;
60016;SDS011;45869;52.698;6.210;2023-03-29T04:35:26;9.35;;;4.20;;
60016;SDS011;45869;52.698;6.210;2023-03-29T04:37:52;5.93;;;4.07;;
60016;SDS011;45869;52.698;6.210;2023-03-29T04:40:24;8.60;;;4.50;;
60016;SDS011;45869;52.698;6.210;2023-03-29T04:42:50;8.07;;;4.53;;
60016;SDS011;45869;52.698;6.210;2023-03-29T04:45:16;9.05;;;5.40;;
60016;SDS011;45869;52.698;6.210;2023-03-29T04:47:43;8.38;;;4.78;;
60016;SDS011;45869;52.698;6.210;2023-03-29T04:50:09;8.13;;;5.10;;
60016;SDS011;45869;52.698;6.210;2023-03-29T04:52:36;9.10;;;4.97;;
60016;SDS011;45869;52.698;6.210;2023-03-29T04:55:02;8.25;;;4.97;;
60016;SDS011;45869;52.698;6.210;2023-03-29T04:57:28;8.75;;;5.05;;
60016;SDS011;45869;52.698;6.210;2023-03-29T04:59:54;10.10;;;5.10;;
60016;SDS011;45869;52.698;6.210;2023-03-29T05:02:21;8.05;;;5.03;;
60016;SDS011;45869;52.698;6.210;2023-03-29T05:04:47;9.18;;;5.72;;
60016;SDS011;45869;52.698;6.210;2023-03-29T05:07:13;8.95;;;5.10;;
60016;SDS011;45869;52.698;6.210;2023-03-29T05:09:39;7.88;;;4.63;;
60016;SDS011;45869;52.698;6.210;2023-03-29T05:12:06;8.85;;;5.50;;
60016;SDS011;45869;52.698;6.210;2023-03-29T05:14:35;7.82;;;5.43;;
60016;SDS011;45869;52.698;6.210;2023-03-29T05:17:04;8.35;;;5.55;;
60016;SDS011;45869;52.698;6.210;2023-03-29T05:19:33;8.77;;;5.60;;
60016;SDS011;45869;52.698;6.210;2023-03-29T05:22:00;7.97;;;5.30;;
60016;SDS011;45869;52.698;6.210;2023-03-29T05:24:26;8.55;;;5.50;;
60016;SDS011;45869;52.698;6.210;2023-03-29T05:26:52;11.52;;;5.50;;
60016;SDS011;45869;52.698;6.210;2023-03-29T05:29:18;8.10;;;5.30;;
60016;SDS011;45869;52.698;6.210;2023-03-29T05:31:47;7.85;;;5.32;;
60016;SDS011;45869;52.698;6.210;2023-03-29T05:34:13;9.18;;;6.10;;
60016;SDS011;45869;52.698;6.210;2023-03-29T05:36:39;9.20;;;5.57;;
60016;SDS011;45869;52.698;6.210;2023-03-29T05:39:06;8.15;;;5.28;;
60016;SDS011;45869;52.698;6.210;2023-03-29T05:41:35;9.65;;;6.35;;
60016;SDS011;45869;52.698;6.210;2023-03-29T05:44:02;10.45;;;6.45;;
60016;SDS011;45869;52.698;6.210;2023-03-29T05:46:28;9.75;;;5.78;;
60016;SDS011;45869;52.698;6.210;2023-03-29T05:48:54;10.73;;;5.95;;
60016;SDS011;45869;52.698;6.210;2023-03-29T05:51:33;9.27;;;6.20;;
60016;SDS011;45869;52.698;6.210;2023-03-29T05:53:59;8.65;;;5.25;;
60016;SDS011;45869;52.698;6.210;2023-03-29T05:56:26;8.52;;;6.10;;
60016;SDS011;45869;52.698;6.210;2023-03-29T05:58:55;9.80;;;5.82;;
60016;SDS011;45869;52.698;6.210;2023-03-29T06:01:22;11.63;;;6.22;;
60016;SDS011;45869;52.698;6.210;2023-03-29T06:03:50;8.63;;;5.70;;
60016;SDS011;45869;52.698;6.210;2023-03-29T06:06:16;10.98;;;6.22;;
60016;SDS011;45869;52.698;6.210;2023-03-29T06:08:42;11.40;;;6.60;;
60016;SDS011;45869;52.698;6.210;2023-03-29T06:11:10;8.57;;;5.50;;
60016;SDS011;45869;52.698;6.210;2023-03-29T06:13:36;11.02;;;7.22;;
60016;SDS011;45869;52.698;6.210;2023-03-29T06:16:06;10.07;;;6.55;;
60016;SDS011;45869;52.698;6.210;2023-03-29T06:18:33;12.38;;;7.40;;
60016;SDS011;45869;52.698;6.210;2023-03-29T06:21:08;11.45;;;6.95;;
60016;SDS011;45869;52.698;6.210;2023-03-29T06:23:35;9.43;;;6.60;;
60016;SDS011;45869;52.698;6.210;2023-03-29T06:26:01;9.63;;;6.25;;
60016;SDS011;45869;52.698;6.210;2023-03-29T06:28:27;9.20;;;6.45;;
60016;SDS011;45869;52.698;6.210;2023-03-29T06:30:53;8.85;;;6.50;;
60016;SDS011;45869;52.698;6.210;2023-03-29T06:33:20;12.75;;;6.88;;
60016;SDS011;45869;52.698;6.210;2023-03-29T06:35:47;9.77;;;6.38;;
60016;SDS011;45869;52.698;6.210;2023-03-29T06:38:13;12.00;;;6.53;;
60016;SDS011;45869;52.698;6.210;2023-03-29T06:40:39;9.20;;;6.20;;
60016;SDS011;45869;52.698;6.210;2023-03-29T06:43:10;10.77;;;6.40;;
60016;SDS011;45869;52.698;6.210;2023-03-29T06:45:36;9.45;;;6.20;;
60016;SDS011;45869;52.698;6.210;2023-03-29T06:48:03;9.40;;;6.25;;
60016;SDS011;45869;52.698;6.210;2023-03-29T06:50:29;8.48;;;5.50;;
60016;SDS011;45869;52.698;6.210;2023-03-29T06:52:58;13.07;;;6.20;;
60016;SDS011;45869;52.698;6.210;2023-03-29T06:55:25;8.63;;;5.40;;
60016;SDS011;45869;52.698;6.210;2023-03-29T06:57:53;9.43;;;6.10;;
60016;SDS011;45869;52.698;6.210;2023-03-29T07:00:19;11.15;;;6.32;;
60016;SDS011;45869;52.698;6.210;2023-03-29T07:02:58;10.00;;;6.70;;
60016;SDS011;45869;52.698;6.210;2023-03-29T07:05:26;10.25;;;5.85;;
60016;SDS011;45869;52.698;6.210;2023-03-29T07:07:53;10.68;;;6.50;;
60016;SDS011;45869;52.698;6.210;2023-03-29T07:10:36;10.85;;;6.32;;
60016;SDS011;45869;52.698;6.210;2023-03-29T07:13:04;9.80;;;6.43;;
60016;SDS011;45869;52.698;6.210;2023-03-29T07:15:30;11.10;;;6.45;;
60016;SDS011;45869;52.698;6.210;2023-03-29T07:17:57;9.00;;;6.28;;
60016;SDS011;45869;52.698;6.210;2023-03-29T07:20:24;10.07;;;6.28;;
60016;SDS011;45869;52.698;6.210;2023-03-29T07:22:52;13.18;;;6.35;;
60016;SDS011;45869;52.698;6.210;2023-03-29T07:25:20;10.75;;;6.10;;
60016;SDS011;45869;52.698;6.210;2023-03-29T07:27:46;11.85;;;6.40;;
60016;SDS011;45869;52.698;6.210;2023-03-29T07:30:14;9.40;;;6.00;;
60016;SDS011;45869;52.698;6.210;2023-03-29T07:32:41;8.48;;;6.00;;
60016;SDS011;45869;52.698;6.210;2023-03-29T07:35:08;8.73;;;6.13;;
60016;SDS011;45869;52.698;6.210;2023-03-29T07:37:36;11.13;;;6.60;;
60016;SDS011;45869;52.698;6.210;2023-03-29T07:40:07;10.80;;;5.95;;
60016;SDS011;45869;52.698;6.210;2023-03-29T07:42:35;9.30;;;5.70;;
60016;SDS011;45869;52.698;6.210;2023-03-29T07:45:02;9.40;;;5.60;;
60016;SDS011;45869;52.698;6.210;2023-03-29T07:47:28;8.55;;;5.40;;
60016;SDS011;45869;52.698;6.210;2023-03-29T07:49:54;9.75;;;5.55;;
60016;SDS011;45869;52.698;6.210;2023-03-29T07:52:20;8.32;;;5.43;;
60016;SDS011;45869;52.698;6.210;2023-03-29T07:54:46;8.45;;;6.03;;
60016;SDS011;45869;52.698;6.210;2023-03-29T07:57:12;13.90;;;6.35;;
60016;SDS011;45869;52.698;6.210;2023-03-29T07:59:38;8.68;;;5.43;;
60016;SDS011;45869;52.698;6.210;2023-03-29T08:02:05;9.65;;;5.78;;
60016;SDS011;45869;52.698;6.210;2023-03-29T08:04:31;8.77;;;5.53;;
60016;SDS011;45869;52.698;6.210;2023-03-29T08:06:57;8.93;;;6.03;;
60016;SDS011;45869;52.698;6.210;2023-03-29T08:09:23;10.20;;;6.38;;
60016;SDS011;45869;52.698;6.210;2023-03-29T08:11:51;10.40;;;5.88;;
60016;SDS011;45869;52.698;6.210;2023-03-29T08:14:17;10.32;;;5.70;;
60016;SDS011;45869;52.698;6.210;2023-03-29T08:16:45;11.27;;;5.40;;
60016;SDS011;45869;52.698;6.210;2023-03-29T08:19:11;10.95;;;5.60;;
60016;SDS011;45869;52.698;6.210;2023-03-29T08:21:38;9.55;;;5.55;;
60016;SDS011;45869;52.698;6.210;2023-03-29T08:24:05;10.98;;;5.88;;
60016;SDS011;45869;52.698;6.210;2023-03-29T08:26:31;8.27;;;5.40;;
60016;SDS011;45869;52.698;6.210;2023-03-29T08:28:57;9.27;;;5.30;;
60016;SDS011;45869;52.698;6.210;2023-03-29T08:31:23;9.38;;;5.95;;
60016;SDS011;45869;52.698;6.210;2023-03-29T08:33:52;8.77;;;5.38;;
60016;SDS011;45869;52.698;6.210;2023-03-29T08:36:18;9.45;;;4.95;;
60016;SDS011;45869;52.698;6.210;2023-03-29T08:38:44;9.60;;;5.75;;
60016;SDS011;45869;52.698;6.210;2023-03-29T08:44:08;9.60;;;5.75;;
60016;SDS011;45869;52.698;6.210;2023-03-29T08:46:43;8.68;;;5.55;;
60016;SDS011;45869;52.698;6.210;2023-03-29T08:49:12;8.88;;;5.63;;
60016;SDS011;45869;52.698;6.210;2023-03-29T08:51:44;8.50;;;5.18;;
60016;SDS011;45869;52.698;6.210;2023-03-29T08:54:12;9.77;;;5.55;;
60016;SDS011;45869;52.698;6.210;2023-03-29T08:56:39;10.50;;;5.60;;
60016;SDS011;45869;52.698;6.210;2023-03-29T08:59:19;10.43;;;5.90;;
60016;SDS011;45869;52.698;6.210;2023-03-29T09:01:46;8.10;;;5.10;;
60016;SDS011;45869;52.698;6.210;2023-03-29T09:04:17;8.93;;;5.60;;
60016;SDS011;45869;52.698;6.210;2023-03-29T09:06:45;9.90;;;5.68;;
60016;SDS011;45869;52.698;6.210;2023-03-29T09:09:12;9.05;;;5.75;;
60016;SDS011;45869;52.698;6.210;2023-03-29T09:17:06;8.70;;;5.70;;
60016;SDS011;45869;52.698;6.210;2023-03-29T09:19:50;8.73;;;5.50;;
60016;SDS011;45869;52.698;6.210;2023-03-29T09:22:26;11.70;;;5.57;;
60016;SDS011;45869;52.698;6.210;2023-03-29T09:25:17;10.95;;;6.18;;
60016;SDS011;45869;52.698;6.210;2023-03-29T09:30:12;8.85;;;6.15;;
60016;SDS011;45869;52.698;6.210;2023-03-29T09:32:54;12.45;;;6.25;;
60016;SDS011;45869;52.698;6.210;2023-03-29T09:35:23;12.38;;;6.72;;
60016;SDS011;45869;52.698;6.210;2023-03-29T09:37:53;11.85;;;6.80;;
60016;SDS011;45869;52.698;6.210;2023-03-29T09:40:21;11.85;;;7.07;;
60016;SDS011;45869;52.698;6.210;2023-03-29T09:42:48;11.80;;;7.15;;
60016;SDS011;45869;52.698;6.210;2023-03-29T09:45:16;13.13;;;6.93;;
60016;SDS011;45869;52.698;6.210;2023-03-29T09:47:45;12.43;;;6.63;;
60016;SDS011;45869;52.698;6.210;2023-03-29T09:50:14;10.38;;;6.70;;
60016;SDS011;45869;52.698;6.210;2023-03-29T09:52:41;12.15;;;7.13;;
60016;SDS011;45869;52.698;6.210;2023-03-29T09:55:13;13.60;;;7.38;;
60016;SDS011;45869;52.698;6.210;2023-03-29T09:57:40;9.90;;;6.78;;
60016;SDS011;45869;52.698;6.210;2023-03-29T10:00:08;12.90;;;7.00;;
60016;SDS011;45869;52.698;6.210;2023-03-29T10:02:34;10.27;;;7.20;;
60016;SDS011;45869;52.698;6.210;2023-03-29T10:05:02;11.50;;;7.05;;
60016;SDS011;45869;52.698;6.210;2023-03-29T10:07:38;12.70;;;7.82;;
60016;SDS011;45869;52.698;6.210;2023-03-29T10:10:08;10.57;;;7.20;;
60016;SDS011;45869;52.698;6.210;2023-03-29T10:12:35;12.35;;;7.40;;
60016;SDS011;45869;52.698;6.210;2023-03-29T10:15:01;10.20;;;7.18;;
60016;SDS011;45869;52.698;6.210;2023-03-29T10:17:29;11.80;;;7.00;;
60016;SDS011;45869;52.698;6.210;2023-03-29T10:20:02;9.67;;;6.73;;
60016;SDS011;45869;52.698;6.210;2023-03-29T10:22:33;10.13;;;6.95;;
60016;SDS011;45869;52.698;6.210;2023-03-29T10:25:08;10.55;;;6.53;;
60016;SDS011;45869;52.698;6.210;2023-03-29T10:27:39;9.27;;;6.40;;
60016;SDS011;45869;52.698;6.210;2023-03-29T10:30:11;11.13;;;6.30;;
60016;SDS011;45869;52.698;6.210;2023-03-29T10:32:43;10.43;;;6.15;;
60016;SDS011;45869;52.698;6.210;2023-03-29T10:37:56;10.70;;;6.13;;
60016;SDS011;45869;52.698;6.210;2023-03-29T10:40:32;9.77;;;5.82;;
60016;SDS011;45869;52.698;6.210;2023-03-29T10:43:00;10.27;;;5.57;;
60016;SDS011;45869;52.698;6.210;2023-03-29T10:45:27;8.57;;;5.40;;
60016;SDS011;45869;52.698;6.210;2023-03-29T10:47:55;9.40;;;5.95;;
60016;SDS011;45869;52.698;6.210;2023-03-29T10:50:21;11.00;;;5.75;;
60016;SDS011;45869;52.698;6.210;2023-03-29T10:52:47;8.27;;;5.50;;
60016;SDS011;45869;52.698;6.210;2023-03-29T10:55:16;8.30;;;5.35;;
60016;SDS011;45869;52.698;6.210;2023-03-29T10:57:57;9.23;;;5.05;;
60016;SDS011;45869;52.698;6.210;2023-03-29T11:03:36;11.45;;;5.45;;
60016;SDS011;45869;52.698;6.210;2023-03-29T11:06:13;10.80;;;5.80;;
60016;SDS011;45869;52.698;6.210;2023-03-29T11:08:52;7.57;;;4.93;;
60016;SDS011;45869;52.698;6.210;2023-03-29T11:13:48;7.55;;;5.30;;
60016;SDS011;45869;52.698;6.210;2023-03-29T11:21:14;9.07;;;5.22;;
60016;SDS011;45869;52.698;6.210;2023-03-29T11:26:23;8.18;;;5.10;;
60016;SDS011;45869;52.698;6.210;2023-03-29T11:29:01;8.45;;;5.22;;
60016;SDS011;45869;52.698;6.210;2023-03-29T11:31:35;7.57;;;4.72;;
60016;SDS011;45869;52.698;6.210;2023-03-29T11:36:59;7.65;;;4.68;;
60016;SDS011;45869;52.698;6.210;2023-03-29T11:42:06;9.55;;;5.35;;
60016;SDS011;45869;52.698;6.210;2023-03-29T11:44:33;8.55;;;5.45;;
60016;SDS011;45869;52.698;6.210;2023-03-29T11:47:06;9.48;;;6.03;;
60016;SDS011;45869;52.698;6.210;2023-03-29T11:49:39;9.77;;;5.00;;
60016;SDS011;45869;52.698;6.210;2023-03-29T11:52:12;8.27;;;5.20;;
60016;SDS011;45869;52.698;6.210;2023-03-29T11:54:42;9.68;;;5.15;;
60016;SDS011;45869;52.698;6.210;2023-03-29T11:59:48;8.50;;;5.30;;
60016;SDS011;45869;52.698;6.210;2023-03-29T12:04:52;10.77;;;5.47;;
60016;SDS011;45869;52.698;6.210;2023-03-29T12:07:25;8.88;;;5.43;;
60016;SDS011;45869;52.698;6.210;2023-03-29T12:15:44;10.57;;;5.88;;
60016;SDS011;45869;52.698;6.210;2023-03-29T12:18:16;8.70;;;5.80;;
60016;SDS011;45869;52.698;6.210;2023-03-29T12:20:45;9.43;;;5.75;;
60016;SDS011;45869;52.698;6.210;2023-03-29T12:23:13;9.48;;;5.95;;
60016;SDS011;45869;52.698;6.210;2023-03-29T12:28:23;9.13;;;6.60;;
60016;SDS011;45869;52.698;6.210;2023-03-29T12:38:57;8.98;;;6.07;;
60016;SDS011;45869;52.698;6.210;2023-03-29T12:41:23;8.65;;;5.88;;
60016;SDS011;45869;52.698;6.210;2023-03-29T12:43:50;11.65;;;6.45;;
60016;SDS011;45869;52.698;6.210;2023-03-29T12:48:48;9.07;;;5.88;;
60016;SDS011;45869;52.698;6.210;2023-03-29T12:51:16;8.75;;;5.60;;
60016;SDS011;45869;52.698;6.210;2023-03-29T12:53:44;9.32;;;6.13;;
60016;SDS011;45869;52.698;6.210;2023-03-29T12:56:13;10.13;;;6.40;;
60016;SDS011;45869;52.698;6.210;2023-03-29T12:58:41;9.43;;;6.38;;
60016;SDS011;45869;52.698;6.210;2023-03-29T13:01:08;9.82;;;6.35;;
60016;SDS011;45869;52.698;6.210;2023-03-29T13:06:08;10.35;;;6.50;;
60016;SDS011;45869;52.698;6.210;2023-03-29T13:08:36;10.68;;;6.25;;
60016;SDS011;45869;52.698;6.210;2023-03-29T13:11:02;8.00;;;5.85;;
60016;SDS011;45869;52.698;6.210;2023-03-29T13:13:33;9.48;;;5.57;;
60016;SDS011;45869;52.698;6.210;2023-03-29T13:16:16;9.10;;;6.13;;
60016;SDS011;45869;52.698;6.210;2023-03-29T13:23:47;12.30;;;6.30;;
60016;SDS011;45869;52.698;6.210;2023-03-29T13:39:14;7.28;;;4.80;;
60016;SDS011;45869;52.698;6.210;2023-03-29T13:44:22;8.00;;;4.97;;
60016;SDS011;45869;52.698;6.210;2023-03-29T13:47:00;7.65;;;5.65;;
60016;SDS011;45869;52.698;6.210;2023-03-29T13:49:27;8.60;;;6.20;;
60016;SDS011;45869;52.698;6.210;2023-03-29T13:54:34;10.43;;;5.88;;
60016;SDS011;45869;52.698;6.210;2023-03-29T13:57:10;9.13;;;6.50;;
60016;SDS011;45869;52.698;6.210;2023-03-29T13:59:42;9.52;;;6.28;;
60016;SDS011;45869;52.698;6.210;2023-03-29T14:02:35;8.45;;;6.00;;
60016;SDS011;45869;52.698;6.210;2023-03-29T14:05:00;7.22;;;5.60;;
60016;SDS011;45869;52.698;6.210;2023-03-29T14:07:28;7.93;;;5.60;;
60016;SDS011;45869;52.698;6.210;2023-03-29T14:09:55;9.38;;;5.40;;
60016;SDS011;45869;52.698;6.210;2023-03-29T14:12:27;8.20;;;6.28;;
60016;SDS011;45869;52.698;6.210;2023-03-29T14:14:56;8.45;;;6.18;;
60016;SDS011;45869;52.698;6.210;2023-03-29T14:17:23;9.75;;;6.50;;
60016;SDS011;45869;52.698;6.210;2023-03-29T14:19:49;9.40;;;6.43;;
60016;SDS011;45869;52.698;6.210;2023-03-29T14:22:17;10.15;;;6.88;;
60016;SDS011;45869;52.698;6.210;2023-03-29T14:24:51;9.60;;;6.20;;
60016;SDS011;45869;52.698;6.210;2023-03-29T14:27:17;7.72;;;5.88;;
60016;SDS011;45869;52.698;6.210;2023-03-29T14:29:45;9.50;;;5.88;;
60016;SDS011;45869;52.698;6.210;2023-03-29T14:32:15;9.40;;;6.00;;
60016;SDS011;45869;52.698;6.210;2023-03-29T14:34:48;8.13;;;5.70;;
60016;SDS011;45869;52.698;6.210;2023-03-29T14:37:23;8.48;;;5.97;;
60016;SDS011;45869;52.698;6.210;2023-03-29T14:39:50;7.70;;;5.00;;
60016;SDS011;45869;52.698;6.210;2023-03-29T14:42:17;7.35;;;5.05;;
60016;SDS011;45869;52.698;6.210;2023-03-29T14:47:21;7.43;;;4.25;;
60016;SDS011;45869;52.698;6.210;2023-03-29T14:49:49;7.30;;;4.47;;
60016;SDS011;45869;52.698;6.210;2023-03-29T14:52:18;7.63;;;4.88;;
60016;SDS011;45869;52.698;6.210;2023-03-29T14:54:48;7.93;;;4.63;;
60016;SDS011;45869;52.698;6.210;2023-03-29T14:57:16;7.15;;;5.30;;
60016;SDS011;45869;52.698;6.210;2023-03-29T14:59:46;6.75;;;4.78;;
60016;SDS011;45869;52.698;6.210;2023-03-29T15:02:27;9.15;;;4.80;;
60016;SDS011;45869;52.698;6.210;2023-03-29T15:04:57;6.80;;;4.63;;
60016;SDS011;45869;52.698;6.210;2023-03-29T15:07:24;8.23;;;4.43;;
60016;SDS011;45869;52.698;6.210;2023-03-29T15:09:51;6.93;;;4.55;;
60016;SDS011;45869;52.698;6.210;2023-03-29T15:12:20;7.82;;;5.40;;
60016;SDS011;45869;52.698;6.210;2023-03-29T15:14:49;9.38;;;5.30;;
60016;SDS011;45869;52.698;6.210;2023-03-29T15:17:22;9.68;;;4.88;;
60016;SDS011;45869;52.698;6.210;2023-03-29T15:19:52;8.43;;;5.40;;
60016;SDS011;45869;52.698;6.210;2023-03-29T15:22:31;7.18;;;5.20;;
60016;SDS011;45869;52.698;6.210;2023-03-29T15:24:58;10.57;;;5.93;;
60016;SDS011;45869;52.698;6.210;2023-03-29T15:27:27;10.00;;;5.70;;
60016;SDS011;45869;52.698;6.210;2023-03-29T15:30:08;9.77;;;6.30;;
60016;SDS011;45869;52.698;6.210;2023-03-29T15:32:35;9.60;;;5.85;;
60016;SDS011;45869;52.698;6.210;2023-03-29T15:35:06;8.27;;;6.65;;
60016;SDS011;45869;52.698;6.210;2023-03-29T15:37:34;10.18;;;7.22;;
60016;SDS011;45869;52.698;6.210;2023-03-29T15:40:01;10.32;;;7.72;;
60016;SDS011;45869;52.698;6.210;2023-03-29T15:42:36;13.48;;;7.78;;
60016;SDS011;45869;52.698;6.210;2023-03-29T15:45:02;11.55;;;8.20;;
60016;SDS011;45869;52.698;6.210;2023-03-29T15:47:30;11.77;;;8.07;;
60016;SDS011;45869;52.698;6.210;2023-03-29T15:49:59;9.48;;;7.47;;
60016;SDS011;45869;52.698;6.210;2023-03-29T15:52:25;13.77;;;8.13;;
60016;SDS011;45869;52.698;6.210;2023-03-29T15:54:51;11.63;;;8.90;;
60016;SDS011;45869;52.698;6.210;2023-03-29T15:57:17;12.63;;;9.23;;
60016;SDS011;45869;52.698;6.210;2023-03-29T15:59:46;11.35;;;9.15;;
60016;SDS011;45869;52.698;6.210;2023-03-29T16:02:15;13.45;;;9.35;;
60016;SDS011;45869;52.698;6.210;2023-03-29T16:04:41;11.77;;;8.68;;
60016;SDS011;45869;52.698;6.210;2023-03-29T16:07:14;11.20;;;8.90;;
60016;SDS011;45869;52.698;6.210;2023-03-29T16:09:41;11.60;;;8.70;;
60016;SDS011;45869;52.698;6.210;2023-03-29T16:12:07;12.20;;;8.50;;
60016;SDS011;45869;52.698;6.210;2023-03-29T16:14:33;13.00;;;9.80;;
60016;SDS011;45869;52.698;6.210;2023-03-29T16:16:59;13.32;;;9.70;;
60016;SDS011;45869;52.698;6.210;2023-03-29T16:19:27;13.10;;;9.40;;
60016;SDS011;45869;52.698;6.210;2023-03-29T16:21:54;12.25;;;9.02;;
60016;SDS011;45869;52.698;6.210;2023-03-29T16:24:27;13.25;;;9.88;;
60016;SDS011;45869;52.698;6.210;2023-03-29T16:26:54;13.40;;;9.38;;
60016;SDS011;45869;52.698;6.210;2023-03-29T16:29:20;14.07;;;9.80;;